Detall de PIREP

Printer-friendly versionPDF version

[2015/03/28 07:00:00]
Flight IATA:CT1004
Pilot Number:012
Company ICAO:CAT
Aircraft Type:C750/F
PAX:4
Departing Airport: LEBL
Destination Airport: EDDL
Alternate Airport:EHAM
Online: VATSIM
Route:DALIN UN870 MAXIR UN853 ARCKY UT853 IBESA T853 NOR T857 BIKMU
Flight Level:F510
No Slew and time accel
No pause
Crash detect
Detect pilot in Cockpit between each 30 and 45 minutes
07:00 Zero fuel Weight: 22945 Lbs, Fuel Weight: 7072 Lbs
07:00 VATSIM:LEBL 280630Z 34007G17KT 300V040 9999 FEW030 14/08 Q1022 NOSIG
07:00 VATSIM:EDDL 280620Z 15008KT CAVOK 04/01 Q1021 NOSIG
07:00 EASTER CHARTER
07:00 Parking Brakes off
07:07 Take-off
07:07 Take off Weight: 29925 Lbs
07:07 Wind: 345º @ 008 Knots Heading: 247º
07:07 POS N41º 17´ 12´´ E002º 05´ 15´´
07:07 Gear Up: 164 Knots
07:07 Flaps:3 at 164 Knots
07:07 Flaps:2 at 193 Knots
07:07 Flaps:0 at 186 Knots
07:22 Wind:323º@048 Knots Heading: 055º Ground Speed: 492 Knots Altitude 46210 ft
07:25 TOC
07:25 Fuel Weight: 6273 Lb
07:37 Wind:322º@027 Knots Heading: 039º Ground Speed: 498 Knots Altitude 51102 ft
07:52 Wind:324º@025 Knots Heading: 355º Ground Speed: 482 Knots Altitude 51105 ft
08:07 Wind:314º@029 Knots Heading: 332º Ground Speed: 477 Knots Altitude 51286 ft
08:21 TOD
08:21 Fuel Weight: 5333 Lb
08:22 Wind:300º@031 Knots Heading: 000º Ground Speed: 493 Knots Altitude 50931 ft
08:37 Wind:313º@035 Knots Heading: 027º Ground Speed: 333 Knots Altitude 16676 ft
08:50 Flaps:2 at 198 Knots
08:50 Flaps:3 at 196 Knots
08:51 Flaps:4 at 193 Knots
08:52 Wind:158º@007 Knots Heading: 086º Ground Speed: 177 Knots Altitude 2034 ft
08:52 Gear Down: 179 Knots
08:53 Flaps:5 at 144 Knots
08:54 TouchDown:Rate -159 ft/min Speed: 123 Knots
08:54 Flaps:0 at 62 Knots
08:54 VATSIM:EDDL 280820Z 16008KT 9999 SCT048 SCT240 08/03 Q1019 NOSIG
08:54 Land
08:54 Wind:158º@008 Knots
08:54 Heading: 053º
08:54 Flight Duration: 01:47
08:54 Landing Weight: 27939 Lbs
08:54 POS N51º 17´ 17´´ E006º 46´ 10´´
08:56 Parking brakes on
08:56 Block to Block Duration: 01:56
08:56 Final Fuel: 4973 Lbls
08:56 Spent Fuel: 2098 Lbls
08:56 Flight Length: 763 NM
08:56 TOD Land Length: 179 NM

Exportar CSV

Powered by Drupal - Modified by Danger4k